KBDE/BDE METAR and TAF weather

Enter ICAO airport designator
Station Type Date Time Source
KBDE METAR 2022/12/04 03:53 UTC NOAA

KBDE 040353Z AUTO 21007KT 10SM CLR M18/M21 A3001 RMK AO2 SLP198 I1000 T11831211


Station Type Date Time Source
KBDE Decoded METAR 2022/12/04 03:53 UTC NOAA

BAUDETTE INTERNATIONAL AIRPORT, MN, United States (KBDE) 48-44N 94-37W 329M
Dec 03, 2022 - 10:53 PM EST / 2022.12.04 0353 UTC
Wind: from the SSW (210 degrees) at 8 MPH (7 KT):0
Visibility: 10 mile(s):0
Sky conditions: clear
Temperature: -0.9 F (-18.3 C)
Windchill: -14 F (-26 C):2
Dew Point: -6.0 F (-21.1 C)
Relative Humidity: 78%
Pressure (altimeter): 30.01 in. Hg (1016 hPa)
ob: KBDE 040353Z AUTO 21007KT 10SM CLR M18/M21 A3001 RMK AO2 SLP198 I1000 T11831211
cycle: 4

Station Type Date Time Source
KBDE TAF UTC NOAA

Error!

Example: see airport list